Time;durP1;ratioP1;P1;durP2;ratioP2;P2;SDS_P1;SDS_P2;PMS_P1;PMS_P2;Temp;Humidity;BMP_temperature;BMP_pressure;BME280_temperature;BME280_humidity;BME280_pressure;Samples;Min_cycle;Max_cycle;Signal;HPM_P1;HPM_P2
2022/11/09 00:02:04;;;;;;;34.97;18.50;;;;;;;9.59;92.79;95400.56;4955630;29;20705;-78
2022/11/09 00:04:30;;;;;;;34.23;19.03;;;;;;;9.66;92.60;95424.28;4956247;29;20209;-78
2022/11/09 00:06:55;;;;;;;37.77;21.00;;;;;;;9.65;92.98;95420.84;4951585;29;20206;-78
2022/11/09 00:09:20;;;;;;;39.47;18.80;;;;;;;9.59;92.89;95399.75;4955581;29;20186;-78
2022/11/09 00:11:46;;;;;;;36.93;19.17;;;;;;;9.66;93.02;95409.31;4955482;28;20186;-78
2022/11/09 00:14:14;;;;;;;34.33;17.50;;;;;;;9.67;93.07;95416.19;4954100;29;20614;-78
2022/11/09 00:16:39;;;;;;;36.97;18.13;;;;;;;9.38;92.88;95363.81;4954461;29;20619;-78
2022/11/09 00:19:04;;;;;;;35.23;18.37;;;;;;;9.72;93.29;95423.50;4955437;29;20182;-78
2022/11/09 00:21:30;;;;;;;33.80;18.60;;;;;;;9.59;93.11;95397.13;4955519;29;20183;-78
2022/11/09 00:23:56;;;;;;;29.70;15.77;;;;;;;9.79;93.37;95425.16;4955421;29;20999;-78
2022/11/09 00:26:22;;;;;;;29.87;16.10;;;;;;;9.79;93.29;95421.72;4954133;28;20186;-78
2022/11/09 00:28:48;;;;;;;33.30;17.80;;;;;;;9.88;93.23;95427.66;4955321;28;20664;-78
2022/11/09 00:31:17;;;;;;;33.57;17.73;;;;;;;9.89;93.06;95424.03;4953974;29;20183;-78
2022/11/09 00:33:47;;;;;;;31.20;16.90;;;;;;;9.86;93.09;95417.31;4955415;29;20265;-78
2022/11/09 00:36:13;;;;;;;28.67;15.03;;;;;;;9.77;92.80;95403.50;4955468;29;20281;-78
2022/11/09 00:38:41;;;;;;;33.10;16.60;;;;;;;9.80;93.15;95405.75;4955242;29;20745;-78
2022/11/09 00:41:10;;;;;;;30.30;16.03;;;;;;;9.95;92.86;95424.06;4953959;29;20261;-79
2022/11/09 00:43:36;;;;;;;34.37;17.47;;;;;;;9.95;92.81;95423.25;4954079;28;20174;-78
2022/11/09 00:46:01;;;;;;;28.27;16.17;;;;;;;9.86;92.92;95395.50;4955569;28;20653;-78
2022/11/09 00:48:27;;;;;;;29.13;16.33;;;;;;;9.82;93.03;95400.31;4955038;29;20181;-79
2022/11/09 00:50:55;;;;;;;31.17;16.10;;;;;;;9.93;92.99;95417.38;4955692;28;20182;-78
2022/11/09 00:53:22;;;;;;;33.10;15.80;;;;;;;9.94;93.20;95409.31;4953634;28;20185;-78
2022/11/09 00:55:54;;;;;;;33.10;15.97;;;;;;;9.97;92.94;95419.44;4955418;28;20956;-78
2022/11/09 00:58:19;;;;;;;33.87;16.40;;;;;;;9.98;92.85;95415.78;4954062;29;20657;-78
2022/11/09 01:00:44;;;;;;;28.43;14.43;;;;;;;10.00;92.72;95426.13;4954870;28;20186;-78
2022/11/09 01:03:10;;;;;;;36.67;16.23;;;;;;;9.61;92.63;95355.69;4954664;29;20174;-78
2022/11/09 01:05:38;;;;;;;30.37;15.70;;;;;;;10.03;92.47;95417.84;4969621;28;20186;-78
2022/11/09 01:08:04;;;;;;;25.63;15.00;;;;;;;10.05;92.50;95424.53;4953480;29;20446;-78
2022/11/09 01:10:30;;;;;;;31.43;17.10;;;;;;;10.05;92.31;95415.81;4954886;29;20950;-78
2022/11/09 01:12:55;;;;;;;33.97;17.07;;;;;;;10.01;92.10;95418.03;4954610;29;20265;-78
2022/11/09 01:15:21;;;;;;;37.50;18.60;;;;;;;9.91;92.68;95399.16;4953920;29;20175;-79
2022/11/09 01:17:46;;;;;;;32.63;17.80;;;;;;;10.01;92.84;95409.34;4953898;29;20257;-78
2022/11/09 01:20:12;;;;;;;41.83;20.07;;;;;;;10.06;93.07;95422.72;4954392;29;20846;-78
2022/11/09 01:22:38;;;;;;;40.30;19.70;;;;;;;10.07;93.58;95417.25;4953715;29;20193;-78
2022/11/09 01:25:04;;;;;;;36.00;18.43;;;;;;;9.93;93.26;95384.00;4953534;29;20194;-78
2022/11/09 01:27:29;;;;;;;38.13;17.67;;;;;;;10.08;93.54;95413.63;4952205;29;20185;-78
2022/11/09 01:29:54;;;;;;;35.13;17.40;;;;;;;10.07;93.29;95412.00;4954712;29;20186;-78
2022/11/09 01:32:20;;;;;;;33.67;17.27;;;;;;;10.00;93.76;95405.91;4954049;29;20649;-78
2022/11/09 01:34:45;;;;;;;38.57;19.73;;;;;;;9.97;93.65;95415.97;4954108;28;20182;-78
2022/11/09 01:37:11;;;;;;;44.00;21.33;;;;;;;9.94;94.24;95405.88;4954455;28;20673;-77
2022/11/09 01:39:36;;;;;;;39.03;19.07;;;;;;;9.95;94.51;95405.66;4954396;29;20671;-78
2022/11/09 01:42:01;;;;;;;37.63;18.63;;;;;;;9.94;94.20;95403.22;4954017;29;20174;-78
2022/11/09 01:44:27;;;;;;;42.73;17.20;;;;;;;9.90;94.42;95401.97;4954076;29;20209;-78
2022/11/09 01:47:02;;;;;;;37.03;18.33;;;;;;;9.85;94.50;95397.31;4953035;29;20237;-78
2022/11/09 01:49:55;;;;;;;39.03;17.30;;;;;;;9.94;94.24;95404.03;4954303;28;20560;-78
2022/11/09 01:52:29;;;;;;;37.40;17.10;;;;;;;9.92;93.87;95398.16;4952718;29;20249;-78
2022/11/09 01:55:04;;;;;;;29.63;15.40;;;;;;;9.93;93.86;95406.88;4952137;29;20229;-77
2022/11/09 01:57:33;;;;;;;28.67;16.20;;;;;;;9.92;93.86;95395.53;4953862;28;20198;-78
2022/11/09 02:00:09;;;;;;;27.23;13.93;;;;;;;9.94;93.37;95405.88;4953809;28;20628;-78
2022/11/09 02:02:37;;;;;;;30.10;15.87;;;;;;;9.75;93.45;95386.31;4953914;29;20174;-78
2022/11/09 02:05:08;;;;;;;24.03;13.43;;;;;;;9.83;93.24;95408.03;4953749;29;20185;-78
2022/11/09 02:07:35;;;;;;;22.73;13.60;;;;;;;9.83;93.54;95402.75;4953999;29;20229;-78
2022/11/09 02:10:07;;;;;;;25.83;13.83;;;;;;;9.77;93.66;95395.63;4952369;29;20197;-76
2022/11/09 02:12:34;;;;;;;22.93;13.77;;;;;;;9.66;93.64;95383.03;4952479;29;20198;-77
2022/11/09 02:15:03;;;;;;;28.87;14.53;;;;;;;9.79;93.49;95408.59;4953477;28;20262;-77
2022/11/09 02:17:29;;;;;;;27.17;14.40;;;;;;;9.60;93.27;95411.91;4952951;29;20241;-77
2022/11/09 02:19:57;;;;;;;28.67;14.20;;;;;;;9.41;94.28;95406.28;4953211;28;20217;-77
2022/11/09 02:22:23;;;;;;;29.27;13.90;;;;;;;9.30;94.56;95401.53;4953414;29;20177;-78
2022/11/09 02:24:49;;;;;;;27.00;13.83;;;;;;;9.42;94.64;95401.84;4967756;28;20649;-76
2022/11/09 02:27:15;;;;;;;21.97;13.27;;;;;;;9.51;94.85;95415.66;4952901;28;20171;-77
2022/11/09 02:29:45;;;;;;;25.93;14.10;;;;;;;9.57;94.52;95413.09;4953080;29;20183;-76
2022/11/09 02:32:20;;;;;;;27.83;14.87;;;;;;;9.49;94.33;95401.91;4952779;28;20665;-77
2022/11/09 02:34:45;;;;;;;24.50;13.83;;;;;;;9.52;94.34;95410.19;4944568;29;20244;-77
2022/11/09 02:37:11;;;;;;;29.23;14.90;;;;;;;9.53;94.40;95417.09;4952507;29;20194;-78
2022/11/09 02:39:37;;;;;;;27.60;13.00;;;;;;;9.54;94.02;95410.00;4952988;29;20258;-78
2022/11/09 02:42:09;;;;;;;23.17;14.30;;;;;;;9.33;93.48;95388.03;4951704;29;20680;-77
2022/11/09 02:44:39;;;;;;;27.47;15.10;;;;;;;9.31;93.31;95415.50;4952797;28;20190;-77
2022/11/09 02:47:05;;;;;;;25.73;13.60;;;;;;;9.18;93.74;95410.09;4953187;28;20952;-77
2022/11/09 02:49:30;;;;;;;25.07;14.07;;;;;;;9.16;93.59;95404.25;4952965;29;20189;-77
2022/11/09 02:51:55;;;;;;;27.53;14.47;;;;;;;9.24;93.34;95412.00;4951606;29;20190;-78
2022/11/09 02:54:21;;;;;;;28.50;15.43;;;;;;;9.27;93.34;95416.84;4952757;29;20252;-77
2022/11/09 02:56:47;;;;;;;26.70;14.30;;;;;;;9.28;93.03;95419.31;4952940;29;20191;-77
2022/11/09 02:59:12;;;;;;;29.20;14.70;;;;;;;9.23;92.84;95400.69;4952303;29;20181;-77
2022/11/09 03:01:37;;;;;;;28.27;14.40;;;;;;;9.17;92.51;95398.78;4952423;28;20190;-78
2022/11/09 03:04:03;;;;;;;24.90;13.80;;;;;;;9.29;92.64;95415.69;4951549;28;20626;-76
2022/11/09 03:06:34;;;;;;;29.20;13.53;;;;;;;9.30;92.03;95414.69;4954158;28;20726;-77
2022/11/09 03:09:03;;;;;;;25.20;13.43;;;;;;;9.24;91.63;95410.19;4953506;29;20183;-77
2022/11/09 03:11:28;;;;;;;25.07;13.37;;;;;;;9.24;91.59;95423.31;4954790;29;20193;-77
2022/11/09 03:13:54;;;;;;;24.10;14.13;;;;;;;9.07;91.46;95412.25;4956384;29;20183;-77
2022/11/09 03:16:19;;;;;;;31.27;14.60;;;;;;;8.98;91.75;95407.31;4956481;28;20179;-77
2022/11/09 03:18:44;;;;;;;23.10;12.57;;;;;;;8.58;91.66;95343.91;4956226;29;20265;-78
2022/11/09 03:21:10;;;;;;;27.00;14.53;;;;;;;8.98;91.56;95417.81;4955313;29;20192;-77
2022/11/09 03:23:35;;;;;;;27.07;14.20;;;;;;;8.88;91.64;95419.94;4956327;29;20660;-78
2022/11/09 03:26:01;;;;;;;22.73;12.87;;;;;;;8.84;91.56;95416.84;4956077;28;20240;-77
2022/11/09 03:28:26;;;;;;;23.13;13.23;;;;;;;8.57;91.95;95381.63;4955957;29;20185;-77
2022/11/09 03:30:52;;;;;;;28.37;12.97;;;;;;;8.58;91.93;95390.31;4956166;29;20167;-77
2022/11/09 03:33:18;;;;;;;27.23;14.97;;;;;;;8.65;92.05;95412.19;4956244;29;20289;-77
2022/11/09 03:35:43;;;;;;;26.77;13.77;;;;;;;8.67;92.39;95421.53;4954720;29;20199;-77
2022/11/09 03:38:08;;;;;;;23.50;14.57;;;;;;;8.46;92.46;95403.13;4955695;28;20209;-77
2022/11/09 03:40:34;;;;;;;27.37;13.20;;;;;;;8.56;92.57;95429.06;4955631;28;20532;-77
2022/11/09 03:42:59;;;;;;;22.60;13.87;;;;;;;8.29;92.69;95384.13;4954851;28;20190;-78
2022/11/09 03:45:26;;;;;;;34.77;15.77;;;;;;;8.50;92.40;95430.59;4954702;29;20170;-78
2022/11/09 03:47:55;;;;;;;27.93;14.47;;;;;;;8.40;92.49;95418.75;4955780;28;20178;-78
2022/11/09 03:50:21;;;;;;;37.10;14.90;;;;;;;8.32;91.96;95407.38;4970755;28;20186;-78
2022/11/09 03:52:47;;;;;;;31.03;14.93;;;;;;;8.21;92.06;95393.91;4956214;28;20182;-78
2022/11/09 03:55:13;;;;;;;35.47;15.07;;;;;;;8.37;92.14;95427.84;4955611;29;20284;-78
2022/11/09 03:57:39;;;;;;;26.67;15.67;;;;;;;8.36;92.45;95433.25;4955855;28;20191;-78
2022/11/09 04:00:06;;;;;;;30.93;14.90;;;;;;;8.32;92.26;95433.59;4949005;29;20189;-78
2022/11/09 04:02:31;;;;;;;25.40;13.97;;;;;;;8.10;92.08;95399.59;4955741;28;20178;-77
2022/11/09 04:04:57;;;;;;;31.03;14.63;;;;;;;7.97;92.26;95382.69;4955624;29;20630;-77
2022/11/09 04:07:22;;;;;;;25.70;14.17;;;;;;;8.23;92.11;95429.41;4955140;29;20193;-77
2022/11/09 04:09:48;;;;;;;29.70;14.57;;;;;;;8.06;91.94;95400.94;4955371;28;20189;-77
2022/11/09 04:12:13;;;;;;;30.67;14.93;;;;;;;8.17;91.80;95429.34;4955138;28;20190;-77
2022/11/09 04:14:38;;;;;;;25.13;14.20;;;;;;;8.18;92.02;95430.97;4955695;29;20182;-77
2022/11/09 04:17:04;;;;;;;36.97;15.10;;;;;;;8.05;91.53;95418.47;4953526;28;20289;-77
2022/11/09 04:19:29;;;;;;;24.70;14.13;;;;;;;8.11;91.52;95433.50;4955585;29;20186;-77
2022/11/09 04:21:54;;;;;;;29.50;15.20;;;;;;;7.97;91.54;95415.94;4953913;28;20194;-77
2022/11/09 04:24:20;;;;;;;31.93;15.30;;;;;;;8.02;91.67;95437.22;4953992;29;20187;-76
2022/11/09 04:26:48;;;;;;;30.43;16.87;;;;;;;7.90;91.94;95420.28;4954406;29;20305;-76
2022/11/09 04:29:14;;;;;;;31.73;16.43;;;;;;;7.86;91.84;95411.19;4954214;29;20190;-76
2022/11/09 04:31:39;;;;;;;36.73;18.83;;;;;;;7.92;91.79;95429.63;4954160;29;20182;-76
2022/11/09 04:34:04;;;;;;;31.60;18.43;;;;;;;7.96;91.79;95432.66;4954212;29;20269;-77
2022/11/09 04:36:30;;;;;;;37.53;19.67;;;;;;;7.82;91.45;95413.34;4954751;28;20178;-77
2022/11/09 04:38:55;;;;;;;34.83;19.70;;;;;;;7.74;91.52;95400.31;4951478;28;20272;-78
2022/11/09 04:41:21;;;;;;;37.57;20.00;;;;;;;7.76;91.75;95408.00;4948941;29;20186;-78
2022/11/09 04:43:46;;;;;;;43.33;18.63;;;;;;;7.84;91.54;95428.88;4951981;29;20201;-77
2022/11/09 04:46:11;;;;;;;37.17;18.77;;;;;;;7.83;92.21;95425.44;4950127;28;20183;-77
2022/11/09 04:48:37;;;;;;;41.10;20.77;;;;;;;7.74;92.05;95418.66;4954742;29;20261;-77
2022/11/09 04:51:05;;;;;;;39.33;21.07;;;;;;;7.84;92.19;95434.13;4954813;29;20240;-78
2022/11/09 04:53:32;;;;;;;36.30;18.30;;;;;;;7.83;91.52;95432.50;4953385;29;20561;-76
2022/11/09 04:55:57;;;;;;;38.37;19.23;;;;;;;7.80;91.66;95432.84;4954127;29;20222;-76
2022/11/09 04:58:23;;;;;;;35.90;19.07;;;;;;;7.69;91.43;95415.78;4953284;29;20205;-78
2022/11/09 05:00:49;;;;;;;31.90;17.73;;;;;;;7.38;91.84;95376.59;4952900;29;20705;-78
2022/11/09 05:03:15;;;;;;;30.53;16.60;;;;;;;7.83;92.05;95437.75;4953327;28;20939;-78
2022/11/09 05:05:41;;;;;;;36.07;18.10;;;;;;;7.73;91.84;95422.28;4954244;29;20245;-78
2022/11/09 05:08:07;;;;;;;37.43;19.67;;;;;;;7.83;92.00;95435.94;4952936;28;20178;-78
2022/11/09 05:10:33;;;;;;;39.83;19.53;;;;;;;7.83;92.42;95443.78;4954619;29;20179;-76
2022/11/09 05:13:00;;;;;;;40.83;20.27;;;;;;;7.82;92.54;95436.09;4954414;29;20193;-77
2022/11/09 05:15:26;;;;;;;42.00;21.77;;;;;;;7.86;92.93;95445.25;4953944;28;20185;-76
2022/11/09 05:17:51;;;;;;;53.20;23.30;;;;;;;7.91;92.79;95448.94;4952627;29;20198;-78
2022/11/09 05:20:17;;;;;;;45.63;23.23;;;;;;;7.89;92.75;95456.16;4953559;29;20190;-80
2022/11/09 05:25:26;;;;;;;47.50;23.17;;;;;;;7.96;93.00;95453.63;4953780;29;20201;-77
2022/11/09 05:27:52;;;;;;;52.73;25.73;;;;;;;7.92;92.86;95434.84;4953955;28;20627;-75
2022/11/09 05:30:17;;;;;;;58.30;28.10;;;;;;;8.12;92.68;95456.13;4952207;29;20183;-78
2022/11/09 05:32:43;;;;;;;59.27;28.37;;;;;;;8.12;92.91;95464.00;4953636;29;20248;-76
2022/11/09 05:35:08;;;;;;;59.37;28.47;;;;;;;8.21;92.90;95462.09;4953335;29;20179;-77
2022/11/09 05:37:34;;;;;;;64.40;26.83;;;;;;;8.22;92.65;95448.78;4953519;28;20277;-76
2022/11/09 05:39:59;;;;;;;60.23;31.17;;;;;;;8.21;92.76;95433.25;4953349;29;20188;-76
2022/11/09 05:42:25;;;;;;;62.03;31.37;;;;;;;8.54;91.91;95466.00;4952573;28;20221;-77
2022/11/09 05:44:50;;;;;;;78.33;35.37;;;;;;;8.60;91.66;95467.06;4953187;29;20209;-76
2022/11/09 05:47:17;;;;;;;70.90;33.77;;;;;;;8.59;92.13;95457.53;4952689;28;20257;-76
2022/11/09 05:49:43;;;;;;;71.00;36.73;;;;;;;8.70;92.00;95454.47;4952697;29;20909;-76
2022/11/09 05:52:08;;;;;;;70.17;33.53;;;;;;;8.85;91.10;95457.03;4953099;29;20210;-76
2022/11/09 05:54:33;;;;;;;69.37;35.30;;;;;;;8.91;91.17;95458.91;4952462;29;20226;-77
2022/11/09 05:57:00;;;;;;;72.13;35.90;;;;;;;9.01;90.99;95454.19;4951573;29;20293;-77
2022/11/09 05:59:25;;;;;;;70.57;35.83;;;;;;;9.24;91.06;95480.31;4952863;28;20543;-76
2022/11/09 06:01:51;;;;;;;75.70;36.17;;;;;;;9.23;90.41;95474.22;4953067;29;20178;-77
2022/11/09 06:04:16;;;;;;;85.50;36.10;;;;;;;9.45;90.31;95496.06;4952373;29;20303;-77
2022/11/09 06:06:42;;;;;;;73.87;35.57;;;;;;;9.60;89.85;95498.63;4953155;29;20182;-76
2022/11/09 06:09:07;;;;;;;74.83;36.33;;;;;;;9.57;89.07;95475.34;4953136;28;20249;-76
2022/11/09 06:11:33;;;;;;;69.17;33.53;;;;;;;9.71;88.69;95492.84;4953468;28;20190;-76
2022/11/09 06:13:58;;;;;;;75.73;34.67;;;;;;;9.81;88.74;95501.22;4953092;28;20182;-77
2022/11/09 06:16:23;;;;;;;70.40;32.67;;;;;;;9.67;89.21;95470.59;4953454;29;20268;-77
2022/11/09 06:18:49;;;;;;;65.93;32.17;;;;;;;9.60;89.25;95462.63;4952984;28;20209;-76
2022/11/09 06:21:14;;;;;;;66.13;31.27;;;;;;;9.82;89.50;95487.91;4953005;29;20255;-77
2022/11/09 06:23:40;;;;;;;72.07;26.70;;;;;;;9.94;89.62;95496.09;4953266;29;20189;-76
2022/11/09 06:26:09;;;;;;;60.03;26.13;;;;;;;10.09;88.71;95504.69;4953067;28;20305;-77
2022/11/09 06:28:35;;;;;;;50.77;22.90;;;;;;;10.00;88.65;95486.63;4952387;28;20178;-77
2022/11/09 06:31:03;;;;;;;53.03;24.63;;;;;;;10.22;88.89;95501.34;4952510;28;20174;-76
2022/11/09 06:33:30;;;;;;;52.20;23.43;;;;;;;10.16;88.37;95476.63;4952191;28;20733;-76
2022/11/09 06:35:57;;;;;;;61.23;23.63;;;;;;;10.42;88.58;95504.94;4952492;29;20654;-78
2022/11/09 06:38:25;;;;;;;61.60;22.03;;;;;;;10.55;88.23;95501.59;4952371;28;20280;-77
2022/11/09 06:40:51;;;;;;;48.47;22.73;;;;;;;10.62;86.98;95488.44;4954984;28;20189;-76
2022/11/09 06:43:16;;;;;;;39.17;21.57;;;;;;;10.95;86.15;95507.84;4956436;28;20193;-77
2022/11/09 06:45:42;;;;;;;43.57;20.27;;;;;;;11.23;84.85;95505.09;4956030;28;20187;-77
2022/11/09 06:48:09;;;;;;;43.07;21.17;;;;;;;11.56;84.49;95510.44;4954550;28;20185;-76
2022/11/09 06:50:34;;;;;;;50.63;23.17;;;;;;;12.06;83.50;95509.09;4955469;29;20245;-76
2022/11/09 06:53:03;;;;;;;43.10;23.20;;;;;;;13.15;80.22;95517.19;4955453;29;20186;-76
2022/11/09 06:55:30;;;;;;;44.03;22.30;;;;;;;14.35;75.61;95526.81;4955308;28;20230;-76
2022/11/09 06:57:56;;;;;;;42.47;22.23;;;;;;;15.52;70.78;95520.41;4956005;28;20201;-76
2022/11/09 07:00:22;;;;;;;39.83;23.27;;;;;;;16.66;66.78;95515.81;4954406;29;20186;-76
2022/11/09 07:02:48;;;;;;;42.23;23.37;;;;;;;17.73;63.36;95526.81;4956000;28;20174;-77
2022/11/09 07:05:14;;;;;;;37.72;21.00;;;;;;;18.53;60.65;95524.69;4956056;29;20246;-77
2022/11/09 07:07:39;;;;;;;36.25;19.20;;;;;;;19.14;57.82;95498.88;4955919;28;20171;-77
2022/11/09 07:10:05;;;;;;;35.95;19.80;;;;;;;20.32;55.42;95515.91;4955975;29;20179;-75
2022/11/09 07:12:33;;;;;;;34.35;19.40;;;;;;;21.37;53.03;95511.50;4955608;28;20174;-75
2022/11/09 07:14:59;;;;;;;31.35;17.02;;;;;;;22.67;50.05;95508.50;4954196;29;20182;-74
2022/11/09 07:17:24;;;;;;;31.50;16.77;;;;;;;23.68;47.78;95506.38;4953958;29;20250;-75
2022/11/09 07:19:50;;;;;;;24.73;15.55;;;;;;;24.40;45.57;95496.75;4955332;29;20587;-75
2022/11/09 07:22:15;;;;;;;27.40;16.23;;;;;;;25.10;43.12;95504.47;4955125;28;20186;-75
2022/11/09 07:24:42;;;;;;;28.70;16.08;;;;;;;25.06;43.06;95501.56;4953399;29;20631;-75
2022/11/09 07:27:08;;;;;;;22.70;15.48;;;;;;;25.06;43.14;95509.66;4954620;29;20179;-76
2022/11/09 07:29:33;;;;;;;25.83;16.38;;;;;;;24.94;43.32;95497.66;4954615;29;20181;-75
2022/11/09 07:31:59;;;;;;;26.70;15.63;;;;;;;24.18;43.94;95504.44;4955045;29;20197;-75
2022/11/09 07:34:24;;;;;;;30.17;15.85;;;;;;;23.22;45.95;95488.81;4954470;28;20179;-75
2022/11/09 07:36:52;;;;;;;24.85;16.23;;;;;;;22.79;47.72;95501.00;4954506;29;20178;-75
2022/11/09 07:39:18;;;;;;;26.95;16.63;;;;;;;22.41;47.70;95488.91;4954406;29;20566;-75
2022/11/09 07:41:46;;;;;;;25.88;16.35;;;;;;;21.81;49.56;95501.19;4954692;29;20183;-75
2022/11/09 07:44:13;;;;;;;26.73;16.40;;;;;;;21.48;50.14;95499.75;4954784;28;20233;-75
2022/11/09 07:46:38;;;;;;;23.17;15.15;;;;;;;21.02;51.44;95490.69;4954635;28;20190;-75
2022/11/09 07:49:04;;;;;;;27.90;16.30;;;;;;;21.03;52.67;95492.31;4954422;28;20232;-75
2022/11/09 07:51:29;;;;;;;26.85;16.75;;;;;;;21.02;51.82;95496.03;4953981;28;20194;-75
2022/11/09 07:53:55;;;;;;;28.27;16.55;;;;;;;20.78;53.46;95495.66;4954250;28;20189;-75
2022/11/09 07:56:20;;;;;;;30.35;16.92;;;;;;;20.76;52.64;95497.78;4954242;29;20178;-75
2022/11/09 07:58:48;;;;;;;39.95;17.58;;;;;;;20.44;53.60;95484.47;4953707;28;20585;-75
2022/11/09 08:01:14;;;;;;;30.58;16.88;;;;;;;20.37;55.06;95493.78;4954302;28;20175;-75
2022/11/09 08:03:39;;;;;;;32.58;17.75;;;;;;;20.33;55.19;95472.03;4954196;29;20185;-75
2022/11/09 08:06:05;;;;;;;32.58;17.25;;;;;;;20.43;53.80;95488.19;4952931;29;20764;-75
2022/11/09 08:08:31;;;;;;;27.58;16.33;;;;;;;20.26;55.31;95466.09;4953999;28;20249;-75
2022/11/09 08:10:57;;;;;;;33.85;17.88;;;;;;;20.44;53.19;95491.69;4954093;28;20314;-75
2022/11/09 08:13:24;;;;;;;27.55;16.30;;;;;;;20.40;54.71;95491.41;4954156;28;20240;-74
2022/11/09 08:15:49;;;;;;;30.02;15.10;;;;;;;20.22;53.55;95481.06;4953994;28;20652;-75
2022/11/09 08:18:19;;;;;;;30.17;16.10;;;;;;;20.24;54.73;95490.41;4953686;29;20198;-75
2022/11/09 08:20:44;;;;;;;24.05;15.85;;;;;;;20.06;53.16;95488.16;4953872;28;20687;-75
2022/11/09 08:23:14;;;;;;;25.80;15.13;;;;;;;19.95;54.83;95491.78;4954052;28;20258;-75
2022/11/09 08:25:41;;;;;;;27.83;15.35;;;;;;;20.06;53.29;95493.50;4953891;28;20175;-75
2022/11/09 08:28:07;;;;;;;26.95;15.82;;;;;;;19.91;53.40;95488.00;4953738;28;20189;-74
2022/11/09 08:30:33;;;;;;;29.10;15.40;;;;;;;19.81;54.46;95491.38;4952535;29;20231;-75
2022/11/09 08:33:00;;;;;;;24.88;16.02;;;;;;;19.78;54.81;95467.84;4953874;28;20182;-75
2022/11/09 08:35:26;;;;;;;26.67;17.00;;;;;;;19.80;54.47;95475.63;4952421;29;20186;-76
2022/11/09 08:37:52;;;;;;;28.98;16.67;;;;;;;19.61;54.95;95482.38;4953625;28;20212;-75
2022/11/09 08:40:21;;;;;;;27.98;16.08;;;;;;;19.53;55.47;95492.44;4954072;28;20187;-75
2022/11/09 08:42:47;;;;;;;32.10;17.02;;;;;;;19.26;55.34;95498.78;4953409;28;20183;-75
2022/11/09 08:45:13;;;;;;;32.20;18.00;;;;;;;19.11;55.90;95488.72;4953635;29;20179;-75
2022/11/09 08:47:39;;;;;;;29.45;17.17;;;;;;;19.06;55.83;95497.47;4953550;29;20692;-75
2022/11/09 08:50:06;;;;;;;28.45;15.73;;;;;;;18.91;56.19;95486.59;4953307;28;20209;-75
2022/11/09 08:52:32;;;;;;;29.00;16.83;;;;;;;18.98;57.70;95495.22;4951829;29;20178;-75
2022/11/09 08:54:57;;;;;;;31.50;17.00;;;;;;;18.76;57.17;95492.53;4953244;28;20241;-75
2022/11/09 08:57:23;;;;;;;31.75;17.27;;;;;;;18.67;58.59;95483.34;4953377;28;20217;-75
2022/11/09 08:59:49;;;;;;;29.33;17.25;;;;;;;18.88;56.86;95487.06;4953808;28;20641;-75
2022/11/09 09:02:15;;;;;;;27.88;18.25;;;;;;;19.09;56.56;95486.28;4953046;29;20197;-75
2022/11/09 09:04:40;;;;;;;32.35;17.10;;;;;;;19.04;56.12;95490.75;4952515;28;20650;-75
2022/11/09 09:07:07;;;;;;;31.08;17.50;;;;;;;19.04;56.00;95488.06;4953063;28;20188;-75
2022/11/09 09:09:33;;;;;;;31.55;17.48;;;;;;;18.84;56.83;95484.13;4952889;28;20175;-75
2022/11/09 09:11:59;;;;;;;30.20;17.67;;;;;;;18.61;58.40;95475.50;4952947;28;20178;-75
2022/11/09 09:14:25;;;;;;;30.67;18.42;;;;;;;18.60;58.20;95488.03;4953151;29;20653;-75
2022/11/09 09:16:50;;;;;;;29.55;18.50;;;;;;;18.34;58.47;95486.00;4952884;28;20658;-75
2022/11/09 09:19:16;;;;;;;32.30;18.38;;;;;;;18.42;59.56;95475.72;4952674;29;20597;-75
2022/11/09 09:21:41;;;;;;;30.30;17.83;;;;;;;18.63;58.93;95476.06;4952727;29;20181;-75
2022/11/09 09:24:07;;;;;;;33.75;18.67;;;;;;;18.60;57.34;95464.00;4952927;29;20187;-75
2022/11/09 09:26:32;;;;;;;32.00;18.02;;;;;;;18.56;59.02;95473.53;4952860;29;20616;-75
2022/11/09 09:28:57;;;;;;;31.85;19.10;;;;;;;18.73;59.14;95470.88;4952751;28;20185;-75
2022/11/09 09:31:24;;;;;;;32.72;19.17;;;;;;;18.84;57.07;95476.09;4952504;28;20600;-75
2022/11/09 09:33:49;;;;;;;31.65;17.90;;;;;;;18.76;57.32;95473.06;4953179;29;20661;-75
2022/11/09 09:36:17;;;;;;;31.98;18.42;;;;;;;18.59;56.76;95475.75;4953206;29;20265;-74
2022/11/09 09:38:42;;;;;;;34.60;18.92;;;;;;;18.34;57.93;95480.66;4951827;29;20210;-74
2022/11/09 09:41:22;;;;;;;33.88;18.55;;;;;;;17.91;59.04;95465.31;4953218;28;20939;-74
2022/11/09 09:43:49;;;;;;;29.65;18.48;;;;;;;17.64;59.82;95446.50;4953711;29;20688;-74
2022/11/09 09:46:31;;;;;;;31.42;18.20;;;;;;;17.64;60.00;95460.59;4952659;28;20265;-75
2022/11/09 09:49:06;;;;;;;37.47;19.73;;;;;;;17.61;60.54;95455.75;4952233;28;20174;-74
2022/11/09 09:51:41;;;;;;;37.92;18.70;;;;;;;17.80;61.64;95452.91;4952649;28;20240;-75
2022/11/09 09:54:18;;;;;;;35.05;19.20;;;;;;;18.03;61.17;95455.41;4951424;28;20174;-75
2022/11/09 09:56:47;;;;;;;37.15;19.25;;;;;;;18.20;60.47;95436.75;4952473;28;20189;-74
2022/11/09 09:59:34;;;;;;;33.80;17.83;;;;;;;18.45;60.40;95448.59;4952580;28;20174;-75
2022/11/09 10:02:00;;;;;;;41.47;23.25;;;;;;;18.50;58.57;95439.88;4952817;28;20257;-75
2022/11/09 10:04:36;;;;;;;32.35;17.92;;;;;;;18.66;58.49;95446.25;4953224;28;20333;-76
2022/11/09 10:07:27;;;;;;;38.75;19.42;;;;;;;18.79;57.42;95443.19;4952076;29;20619;-76
2022/11/09 10:10:02;;;;;;;33.30;18.25;;;;;;;18.58;57.66;95420.81;4938100;29;20577;-76
2022/11/09 10:12:43;;;;;;;37.63;18.48;;;;;;;18.56;59.06;95441.53;4953359;28;20177;-76
2022/11/09 10:15:37;;;;;;;34.58;18.85;;;;;;;18.63;59.37;95436.06;4951674;28;20558;-77
2022/11/09 10:18:24;;;;;;;30.17;18.35;;;;;;;18.66;59.30;95430.25;4952801;29;20638;-76
2022/11/09 10:21:10;;;;;;;36.25;19.25;;;;;;;18.71;58.55;95423.09;4952575;29;20174;-76
2022/11/09 10:23:50;;;;;;;33.30;18.77;;;;;;;18.79;58.76;95427.19;4952779;28;20170;-76
2022/11/09 10:26:25;;;;;;;34.30;19.15;;;;;;;18.80;58.19;95431.47;4952597;29;20688;-76
2022/11/09 10:28:58;;;;;;;39.30;19.23;;;;;;;18.74;56.40;95421.81;4952894;29;20166;-76
2022/11/09 10:31:30;;;;;;;37.22;19.50;;;;;;;18.73;58.03;95429.00;4952779;28;20166;-76
2022/11/09 10:34:02;;;;;;;28.35;16.98;;;;;;;18.46;56.74;95420.06;4952785;28;20691;-76
2022/11/09 10:36:27;;;;;;;29.08;17.17;;;;;;;18.24;58.23;95405.91;4953175;29;20634;-76
2022/11/09 10:38:58;;;;;;;34.80;17.25;;;;;;;18.29;57.78;95414.75;4951851;29;20194;-76
2022/11/09 10:41:44;;;;;;;34.28;18.77;;;;;;;18.00;57.90;95410.59;4952609;29;20253;-76
2022/11/09 10:44:15;;;;;;;32.25;17.35;;;;;;;17.63;58.99;95408.41;4952845;28;20177;-76
2022/11/09 10:47:02;;;;;;;34.25;18.13;;;;;;;17.70;61.46;95405.59;4952921;29;20162;-76
2022/11/09 10:49:27;;;;;;;37.60;19.92;;;;;;;17.77;61.29;95402.75;4952762;29;20185;-76
2022/11/09 10:51:53;;;;;;;39.38;20.40;;;;;;;17.73;61.10;95402.44;4952010;28;20614;-76
2022/11/09 10:54:21;;;;;;;29.63;17.70;;;;;;;17.75;61.62;95391.53;4951961;29;20257;-76
2022/11/09 10:57:17;;;;;;;37.83;19.08;;;;;;;17.76;60.71;95379.84;4951872;28;20668;-76
2022/11/09 10:59:57;;;;;;;35.25;19.88;;;;;;;17.93;59.93;95393.97;4951484;28;20202;-76
2022/11/09 11:02:25;;;;;;;32.80;19.13;;;;;;;17.93;59.59;95385.97;4951950;28;20268;-76
2022/11/09 11:05:05;;;;;;;33.70;17.27;;;;;;;17.86;60.35;95382.66;4951876;28;20270;-76
2022/11/09 11:07:33;;;;;;;29.35;17.88;;;;;;;17.85;60.84;95383.72;4951749;29;20178;-76
2022/11/09 11:10:28;;;;;;;36.35;18.40;;;;;;;17.86;61.20;95386.13;4951828;28;20194;-76
2022/11/09 11:12:59;;;;;;;34.80;18.52;;;;;;;17.91;60.39;95375.56;4938947;28;20257;-76
2022/11/09 11:15:27;;;;;;;32.45;17.20;;;;;;;17.93;60.18;95381.44;4951630;28;20191;-76
2022/11/09 11:18:01;;;;;;;29.90;17.95;;;;;;;17.77;60.64;95370.81;4951895;28;20234;-76
2022/11/09 11:20:33;;;;;;;33.33;18.35;;;;;;;17.70;61.73;95377.09;4951737;28;20183;-77
2022/11/09 11:23:11;;;;;;;33.08;18.73;;;;;;;17.48;62.27;95362.84;4966849;28;20762;-77
2022/11/09 11:25:59;;;;;;;32.60;18.55;;;;;;;17.50;62.03;95363.41;4951671;28;20181;-77
2022/11/09 11:28:43;;;;;;;32.47;18.33;;;;;;;17.57;61.59;95374.72;4954563;28;20182;-77